sensor_id;sensor_type;location;lat;lon;timestamp;P1;durP1;ratioP1;P2;durP2;ratioP2
9080;SDS011;13509;50.760;6.080;2023-02-15T00:02:09;33.10;;;16.50;;
9080;SDS011;13509;50.760;6.080;2023-02-15T00:04:37;31.87;;;17.20;;
9080;SDS011;13509;50.760;6.080;2023-02-15T00:07:14;31.03;;;16.33;;
9080;SDS011;13509;50.760;6.080;2023-02-15T00:09:44;30.37;;;15.63;;
9080;SDS011;13509;50.760;6.080;2023-02-15T00:12:12;34.57;;;16.73;;
9080;SDS011;13509;50.760;6.080;2023-02-15T00:14:41;31.60;;;16.20;;
9080;SDS011;13509;50.760;6.080;2023-02-15T00:17:10;32.37;;;16.07;;
9080;SDS011;13509;50.760;6.080;2023-02-15T00:19:38;29.83;;;14.93;;
9080;SDS011;13509;50.760;6.080;2023-02-15T00:22:07;32.10;;;15.87;;
9080;SDS011;13509;50.760;6.080;2023-02-15T00:24:35;32.97;;;16.63;;
9080;SDS011;13509;50.760;6.080;2023-02-15T00:27:03;29.67;;;15.93;;
9080;SDS011;13509;50.760;6.080;2023-02-15T00:29:31;30.73;;;15.70;;
9080;SDS011;13509;50.760;6.080;2023-02-15T00:31:59;34.20;;;16.20;;
9080;SDS011;13509;50.760;6.080;2023-02-15T00:34:29;29.97;;;15.27;;
9080;SDS011;13509;50.760;6.080;2023-02-15T00:36:57;29.30;;;14.90;;
9080;SDS011;13509;50.760;6.080;2023-02-15T00:39:25;30.23;;;15.27;;
9080;SDS011;13509;50.760;6.080;2023-02-15T00:41:55;32.47;;;16.57;;
9080;SDS011;13509;50.760;6.080;2023-02-15T00:44:23;27.07;;;15.63;;
9080;SDS011;13509;50.760;6.080;2023-02-15T00:46:51;30.17;;;14.93;;
9080;SDS011;13509;50.760;6.080;2023-02-15T00:49:19;29.87;;;15.03;;
9080;SDS011;13509;50.760;6.080;2023-02-15T00:51:49;28.90;;;15.00;;
9080;SDS011;13509;50.760;6.080;2023-02-15T00:54:17;28.10;;;14.10;;
9080;SDS011;13509;50.760;6.080;2023-02-15T00:56:45;24.77;;;13.77;;
9080;SDS011;13509;50.760;6.080;2023-02-15T00:59:13;28.17;;;14.50;;
9080;SDS011;13509;50.760;6.080;2023-02-15T01:01:41;29.47;;;14.53;;
9080;SDS011;13509;50.760;6.080;2023-02-15T01:04:09;28.60;;;14.87;;
9080;SDS011;13509;50.760;6.080;2023-02-15T01:06:38;27.80;;;13.97;;
9080;SDS011;13509;50.760;6.080;2023-02-15T01:09:07;32.00;;;16.30;;
9080;SDS011;13509;50.760;6.080;2023-02-15T01:11:35;26.93;;;13.73;;
9080;SDS011;13509;50.760;6.080;2023-02-15T01:14:04;28.67;;;14.70;;
9080;SDS011;13509;50.760;6.080;2023-02-15T01:16:32;26.63;;;14.13;;
9080;SDS011;13509;50.760;6.080;2023-02-15T01:19:00;25.37;;;14.07;;
9080;SDS011;13509;50.760;6.080;2023-02-15T01:21:29;28.90;;;14.10;;
9080;SDS011;13509;50.760;6.080;2023-02-15T01:24:00;28.10;;;15.03;;
9080;SDS011;13509;50.760;6.080;2023-02-15T01:26:29;26.00;;;14.10;;
9080;SDS011;13509;50.760;6.080;2023-02-15T01:28:58;26.13;;;14.17;;
9080;SDS011;13509;50.760;6.080;2023-02-15T01:31:26;28.20;;;14.07;;
9080;SDS011;13509;50.760;6.080;2023-02-15T01:33:54;26.67;;;13.47;;
9080;SDS011;13509;50.760;6.080;2023-02-15T01:36:22;28.67;;;14.53;;
9080;SDS011;13509;50.760;6.080;2023-02-15T01:38:50;26.43;;;14.63;;
9080;SDS011;13509;50.760;6.080;2023-02-15T01:41:19;24.43;;;14.23;;
9080;SDS011;13509;50.760;6.080;2023-02-15T01:43:51;25.07;;;13.90;;
9080;SDS011;13509;50.760;6.080;2023-02-15T01:46:20;32.10;;;13.07;;
9080;SDS011;13509;50.760;6.080;2023-02-15T01:48:51;24.33;;;13.90;;
9080;SDS011;13509;50.760;6.080;2023-02-15T01:51:21;30.63;;;14.27;;
9080;SDS011;13509;50.760;6.080;2023-02-15T01:53:52;25.23;;;13.63;;
9080;SDS011;13509;50.760;6.080;2023-02-15T01:56:21;25.17;;;14.10;;
9080;SDS011;13509;50.760;6.080;2023-02-15T01:58:53;25.43;;;14.10;;
9080;SDS011;13509;50.760;6.080;2023-02-15T02:01:23;26.07;;;12.80;;
9080;SDS011;13509;50.760;6.080;2023-02-15T02:03:56;26.83;;;12.83;;
9080;SDS011;13509;50.760;6.080;2023-02-15T02:06:25;26.43;;;13.33;;
9080;SDS011;13509;50.760;6.080;2023-02-15T02:08:54;26.00;;;13.57;;
9080;SDS011;13509;50.760;6.080;2023-02-15T02:11:22;25.07;;;13.27;;
9080;SDS011;13509;50.760;6.080;2023-02-15T02:13:51;24.47;;;13.00;;
9080;SDS011;13509;50.760;6.080;2023-02-15T02:16:21;25.30;;;13.43;;
9080;SDS011;13509;50.760;6.080;2023-02-15T02:18:55;23.20;;;12.17;;
9080;SDS011;13509;50.760;6.080;2023-02-15T02:35:24;29.80;;;13.87;;
9080;SDS011;13509;50.760;6.080;2023-02-15T02:37:55;26.07;;;12.57;;
9080;SDS011;13509;50.760;6.080;2023-02-15T02:40:25;26.50;;;13.40;;
9080;SDS011;13509;50.760;6.080;2023-02-15T02:42:56;24.87;;;12.43;;
9080;SDS011;13509;50.760;6.080;2023-02-15T02:45:28;21.97;;;12.60;;
9080;SDS011;13509;50.760;6.080;2023-02-15T02:47:59;26.40;;;13.40;;
9080;SDS011;13509;50.760;6.080;2023-02-15T02:50:30;26.73;;;12.07;;
9080;SDS011;13509;50.760;6.080;2023-02-15T02:52:58;24.60;;;12.50;;
9080;SDS011;13509;50.760;6.080;2023-02-15T02:55:28;22.57;;;12.23;;
9080;SDS011;13509;50.760;6.080;2023-02-15T02:57:57;25.00;;;12.93;;
9080;SDS011;13509;50.760;6.080;2023-02-15T03:00:29;26.13;;;12.80;;
9080;SDS011;13509;50.760;6.080;2023-02-15T03:02:59;23.40;;;12.33;;
9080;SDS011;13509;50.760;6.080;2023-02-15T03:05:32;24.43;;;12.57;;
9080;SDS011;13509;50.760;6.080;2023-02-15T03:08:01;25.87;;;13.10;;
9080;SDS011;13509;50.760;6.080;2023-02-15T03:10:32;26.37;;;12.70;;
9080;SDS011;13509;50.760;6.080;2023-02-15T03:13:03;20.53;;;11.57;;
9080;SDS011;13509;50.760;6.080;2023-02-15T03:15:33;24.47;;;12.47;;
9080;SDS011;13509;50.760;6.080;2023-02-15T03:18:17;24.40;;;12.00;;
9080;SDS011;13509;50.760;6.080;2023-02-15T03:20:47;23.23;;;11.63;;
9080;SDS011;13509;50.760;6.080;2023-02-15T03:23:16;23.93;;;11.40;;
9080;SDS011;13509;50.760;6.080;2023-02-15T03:25:46;20.47;;;10.80;;
9080;SDS011;13509;50.760;6.080;2023-02-15T03:28:17;20.70;;;10.90;;
9080;SDS011;13509;50.760;6.080;2023-02-15T03:30:47;22.50;;;11.87;;
9080;SDS011;13509;50.760;6.080;2023-02-15T03:33:19;22.87;;;12.53;;
9080;SDS011;13509;50.760;6.080;2023-02-15T03:35:52;23.30;;;11.70;;
9080;SDS011;13509;50.760;6.080;2023-02-15T03:38:25;21.00;;;12.27;;
9080;SDS011;13509;50.760;6.080;2023-02-15T03:40:56;19.43;;;11.40;;
9080;SDS011;13509;50.760;6.080;2023-02-15T03:43:40;19.33;;;9.97;;
9080;SDS011;13509;50.760;6.080;2023-02-15T03:46:16;18.37;;;10.53;;
9080;SDS011;13509;50.760;6.080;2023-02-15T03:48:46;21.13;;;10.73;;
9080;SDS011;13509;50.760;6.080;2023-02-15T03:51:17;17.47;;;10.10;;
9080;SDS011;13509;50.760;6.080;2023-02-15T03:54:03;17.43;;;9.67;;
9080;SDS011;13509;50.760;6.080;2023-02-15T03:56:33;19.03;;;10.13;;
9080;SDS011;13509;50.760;6.080;2023-02-15T03:59:03;21.53;;;11.20;;
9080;SDS011;13509;50.760;6.080;2023-02-15T04:01:54;20.00;;;9.30;;
9080;SDS011;13509;50.760;6.080;2023-02-15T04:04:27;15.33;;;9.10;;
9080;SDS011;13509;50.760;6.080;2023-02-15T04:06:57;20.43;;;9.10;;
9080;SDS011;13509;50.760;6.080;2023-02-15T04:09:25;16.97;;;9.33;;
9080;SDS011;13509;50.760;6.080;2023-02-15T04:12:11;17.80;;;9.53;;
9080;SDS011;13509;50.760;6.080;2023-02-15T04:14:39;15.67;;;8.97;;
9080;SDS011;13509;50.760;6.080;2023-02-15T04:17:25;16.57;;;9.40;;
9080;SDS011;13509;50.760;6.080;2023-02-15T04:19:53;16.03;;;9.17;;
9080;SDS011;13509;50.760;6.080;2023-02-15T04:22:40;17.97;;;9.30;;
9080;SDS011;13509;50.760;6.080;2023-02-15T04:25:26;15.90;;;8.87;;
9080;SDS011;13509;50.760;6.080;2023-02-15T04:27:54;14.90;;;8.37;;
9080;SDS011;13509;50.760;6.080;2023-02-15T04:30:24;19.50;;;8.70;;
9080;SDS011;13509;50.760;6.080;2023-02-15T04:32:53;14.50;;;7.87;;
9080;SDS011;13509;50.760;6.080;2023-02-15T04:35:21;16.20;;;7.40;;
9080;SDS011;13509;50.760;6.080;2023-02-15T04:37:50;14.50;;;7.50;;
9080;SDS011;13509;50.760;6.080;2023-02-15T04:40:18;11.23;;;7.07;;
9080;SDS011;13509;50.760;6.080;2023-02-15T04:42:47;11.57;;;7.00;;
9080;SDS011;13509;50.760;6.080;2023-02-15T04:45:16;13.13;;;7.10;;
9080;SDS011;13509;50.760;6.080;2023-02-15T04:47:44;12.60;;;7.03;;
9080;SDS011;13509;50.760;6.080;2023-02-15T04:50:12;13.43;;;7.30;;
9080;SDS011;13509;50.760;6.080;2023-02-15T04:52:40;10.43;;;6.33;;
9080;SDS011;13509;50.760;6.080;2023-02-15T04:55:10;11.37;;;6.67;;
9080;SDS011;13509;50.760;6.080;2023-02-15T04:57:38;12.50;;;8.07;;
9080;SDS011;13509;50.760;6.080;2023-02-15T05:00:06;12.07;;;6.57;;
9080;SDS011;13509;50.760;6.080;2023-02-15T05:02:35;9.17;;;5.87;;
9080;SDS011;13509;50.760;6.080;2023-02-15T05:05:04;11.60;;;6.77;;
9080;SDS011;13509;50.760;6.080;2023-02-15T05:07:33;11.40;;;6.57;;
9080;SDS011;13509;50.760;6.080;2023-02-15T05:10:01;12.70;;;6.47;;
9080;SDS011;13509;50.760;6.080;2023-02-15T05:12:31;11.23;;;6.20;;
9080;SDS011;13509;50.760;6.080;2023-02-15T05:14:59;12.83;;;6.77;;
9080;SDS011;13509;50.760;6.080;2023-02-15T05:17:27;10.03;;;5.73;;
9080;SDS011;13509;50.760;6.080;2023-02-15T05:19:55;10.37;;;6.27;;
9080;SDS011;13509;50.760;6.080;2023-02-15T05:22:23;11.30;;;6.23;;
9080;SDS011;13509;50.760;6.080;2023-02-15T05:24:52;11.67;;;5.60;;
9080;SDS011;13509;50.760;6.080;2023-02-15T05:27:39;10.33;;;6.37;;
9080;SDS011;13509;50.760;6.080;2023-02-15T05:30:25;12.70;;;6.07;;
9080;SDS011;13509;50.760;6.080;2023-02-15T05:32:53;10.13;;;6.13;;
9080;SDS011;13509;50.760;6.080;2023-02-15T05:35:21;11.10;;;6.03;;
9080;SDS011;13509;50.760;6.080;2023-02-15T05:37:50;12.30;;;5.97;;
9080;SDS011;13509;50.760;6.080;2023-02-15T05:40:18;11.23;;;6.30;;
9080;SDS011;13509;50.760;6.080;2023-02-15T05:42:47;12.63;;;6.30;;
9080;SDS011;13509;50.760;6.080;2023-02-15T05:45:16;10.50;;;6.10;;
9080;SDS011;13509;50.760;6.080;2023-02-15T05:47:44;9.10;;;5.30;;
9080;SDS011;13509;50.760;6.080;2023-02-15T05:50:12;10.97;;;6.17;;
9080;SDS011;13509;50.760;6.080;2023-02-15T05:52:40;10.50;;;5.60;;
9080;SDS011;13509;50.760;6.080;2023-02-15T05:55:08;8.27;;;5.40;;
9080;SDS011;13509;50.760;6.080;2023-02-15T05:57:36;9.50;;;5.70;;
9080;SDS011;13509;50.760;6.080;2023-02-15T06:00:07;12.03;;;5.43;;
9080;SDS011;13509;50.760;6.080;2023-02-15T06:02:36;9.47;;;5.30;;
9080;SDS011;13509;50.760;6.080;2023-02-15T06:05:05;10.33;;;5.20;;
9080;SDS011;13509;50.760;6.080;2023-02-15T06:07:33;10.03;;;5.87;;
9080;SDS011;13509;50.760;6.080;2023-02-15T06:10:02;10.60;;;5.43;;
9080;SDS011;13509;50.760;6.080;2023-02-15T06:12:30;8.27;;;5.40;;
9080;SDS011;13509;50.760;6.080;2023-02-15T06:14:58;10.83;;;5.50;;
9080;SDS011;13509;50.760;6.080;2023-02-15T06:17:28;9.93;;;5.20;;
9080;SDS011;13509;50.760;6.080;2023-02-15T06:19:56;11.63;;;5.50;;
9080;SDS011;13509;50.760;6.080;2023-02-15T06:22:24;8.60;;;5.33;;
9080;SDS011;13509;50.760;6.080;2023-02-15T06:24:52;10.77;;;5.00;;
9080;SDS011;13509;50.760;6.080;2023-02-15T06:27:21;12.07;;;5.50;;
9080;SDS011;13509;50.760;6.080;2023-02-15T06:29:49;11.23;;;5.77;;
9080;SDS011;13509;50.760;6.080;2023-02-15T06:32:17;8.40;;;5.27;;
9080;SDS011;13509;50.760;6.080;2023-02-15T06:34:46;7.90;;;5.20;;
9080;SDS011;13509;50.760;6.080;2023-02-15T06:37:15;10.70;;;5.70;;
9080;SDS011;13509;50.760;6.080;2023-02-15T06:39:43;8.93;;;5.03;;
9080;SDS011;13509;50.760;6.080;2023-02-15T06:42:11;11.00;;;5.73;;
9080;SDS011;13509;50.760;6.080;2023-02-15T06:44:39;10.57;;;5.67;;
9080;SDS011;13509;50.760;6.080;2023-02-15T06:47:07;10.27;;;5.80;;
9080;SDS011;13509;50.760;6.080;2023-02-15T06:49:36;13.63;;;5.80;;
9080;SDS011;13509;50.760;6.080;2023-02-15T06:52:06;9.67;;;5.50;;
9080;SDS011;13509;50.760;6.080;2023-02-15T06:54:34;9.73;;;5.77;;
9080;SDS011;13509;50.760;6.080;2023-02-15T06:57:02;8.57;;;5.50;;
9080;SDS011;13509;50.760;6.080;2023-02-15T06:59:30;9.77;;;5.40;;
9080;SDS011;13509;50.760;6.080;2023-02-15T07:01:58;10.53;;;5.90;;
9080;SDS011;13509;50.760;6.080;2023-02-15T07:04:27;8.90;;;5.83;;
9080;SDS011;13509;50.760;6.080;2023-02-15T07:06:56;10.80;;;6.00;;
9080;SDS011;13509;50.760;6.080;2023-02-15T07:09:25;11.20;;;6.43;;
9080;SDS011;13509;50.760;6.080;2023-02-15T07:11:53;12.27;;;6.23;;
9080;SDS011;13509;50.760;6.080;2023-02-15T07:14:39;11.90;;;5.93;;
9080;SDS011;13509;50.760;6.080;2023-02-15T07:17:08;10.37;;;5.53;;
9080;SDS011;13509;50.760;6.080;2023-02-15T07:19:56;10.87;;;5.80;;
9080;SDS011;13509;50.760;6.080;2023-02-15T07:22:24;11.63;;;6.07;;
9080;SDS011;13509;50.760;6.080;2023-02-15T07:24:53;11.27;;;5.77;;
9080;SDS011;13509;50.760;6.080;2023-02-15T07:27:21;10.10;;;6.07;;
9080;SDS011;13509;50.760;6.080;2023-02-15T07:29:50;12.07;;;6.13;;
9080;SDS011;13509;50.760;6.080;2023-02-15T07:32:18;11.67;;;6.20;;
9080;SDS011;13509;50.760;6.080;2023-02-15T07:34:46;10.80;;;6.63;;
9080;SDS011;13509;50.760;6.080;2023-02-15T07:37:14;12.27;;;6.10;;
9080;SDS011;13509;50.760;6.080;2023-02-15T07:39:42;11.57;;;6.00;;
9080;SDS011;13509;50.760;6.080;2023-02-15T07:42:12;13.57;;;6.17;;
9080;SDS011;13509;50.760;6.080;2023-02-15T07:44:40;12.63;;;6.17;;
9080;SDS011;13509;50.760;6.080;2023-02-15T07:47:08;13.90;;;6.10;;
9080;SDS011;13509;50.760;6.080;2023-02-15T07:49:36;10.27;;;5.90;;
9080;SDS011;13509;50.760;6.080;2023-02-15T07:52:05;8.87;;;5.57;;
9080;SDS011;13509;50.760;6.080;2023-02-15T07:54:33;7.87;;;5.33;;
9080;SDS011;13509;50.760;6.080;2023-02-15T07:57:01;9.63;;;5.97;;
9080;SDS011;13509;50.760;6.080;2023-02-15T07:59:31;8.57;;;5.87;;
9080;SDS011;13509;50.760;6.080;2023-02-15T08:01:59;11.03;;;6.50;;
9080;SDS011;13509;50.760;6.080;2023-02-15T08:04:27;9.50;;;4.87;;
9080;SDS011;13509;50.760;6.080;2023-02-15T08:06:55;10.10;;;5.47;;
9080;SDS011;13509;50.760;6.080;2023-02-15T08:09:23;9.90;;;5.13;;
9080;SDS011;13509;50.760;6.080;2023-02-15T08:11:51;7.47;;;5.43;;
9080;SDS011;13509;50.760;6.080;2023-02-15T08:14:20;9.97;;;6.13;;
9080;SDS011;13509;50.760;6.080;2023-02-15T08:16:50;9.27;;;6.60;;
9080;SDS011;13509;50.760;6.080;2023-02-15T08:19:20;11.33;;;6.80;;
9080;SDS011;13509;50.760;6.080;2023-02-15T08:21:49;8.63;;;7.07;;
9080;SDS011;13509;50.760;6.080;2023-02-15T08:24:18;11.40;;;6.80;;
9080;SDS011;13509;50.760;6.080;2023-02-15T08:26:47;12.77;;;6.87;;
9080;SDS011;13509;50.760;6.080;2023-02-15T08:29:16;9.93;;;6.50;;
9080;SDS011;13509;50.760;6.080;2023-02-15T08:31:45;12.47;;;7.23;;
9080;SDS011;13509;50.760;6.080;2023-02-15T08:34:15;10.27;;;7.27;;
9080;SDS011;13509;50.760;6.080;2023-02-15T08:36:44;13.20;;;7.50;;
9080;SDS011;13509;50.760;6.080;2023-02-15T08:39:13;10.37;;;6.30;;
9080;SDS011;13509;50.760;6.080;2023-02-15T08:41:42;9.73;;;6.93;;
9080;SDS011;13509;50.760;6.080;2023-02-15T08:44:10;14.53;;;7.47;;
9080;SDS011;13509;50.760;6.080;2023-02-15T08:46:39;13.57;;;6.93;;
9080;SDS011;13509;50.760;6.080;2023-02-15T08:49:12;10.60;;;7.13;;
9080;SDS011;13509;50.760;6.080;2023-02-15T08:51:42;11.67;;;8.43;;
9080;SDS011;13509;50.760;6.080;2023-02-15T08:54:12;12.30;;;8.03;;
9080;SDS011;13509;50.760;6.080;2023-02-15T08:56:40;11.27;;;7.33;;
9080;SDS011;13509;50.760;6.080;2023-02-15T08:59:12;10.77;;;7.90;;
9080;SDS011;13509;50.760;6.080;2023-02-15T09:01:40;12.50;;;8.10;;
9080;SDS011;13509;50.760;6.080;2023-02-15T09:04:08;10.60;;;7.80;;
9080;SDS011;13509;50.760;6.080;2023-02-15T09:06:37;13.63;;;7.77;;
9080;SDS011;13509;50.760;6.080;2023-02-15T09:09:06;11.60;;;8.10;;
9080;SDS011;13509;50.760;6.080;2023-02-15T09:11:36;13.47;;;7.93;;
9080;SDS011;13509;50.760;6.080;2023-02-15T09:14:05;11.17;;;7.43;;
9080;SDS011;13509;50.760;6.080;2023-02-15T09:16:35;11.60;;;7.70;;
9080;SDS011;13509;50.760;6.080;2023-02-15T09:19:03;13.83;;;7.67;;
9080;SDS011;13509;50.760;6.080;2023-02-15T09:21:32;14.53;;;8.43;;
9080;SDS011;13509;50.760;6.080;2023-02-15T09:24:01;15.20;;;8.50;;
9080;SDS011;13509;50.760;6.080;2023-02-15T09:26:33;14.50;;;8.43;;
9080;SDS011;13509;50.760;6.080;2023-02-15T09:29:02;14.37;;;8.13;;
9080;SDS011;13509;50.760;6.080;2023-02-15T09:31:32;12.40;;;8.00;;
9080;SDS011;13509;50.760;6.080;2023-02-15T09:34:00;10.70;;;7.00;;
9080;SDS011;13509;50.760;6.080;2023-02-15T09:36:31;15.23;;;8.53;;
9080;SDS011;13509;50.760;6.080;2023-02-15T09:39:01;17.00;;;10.20;;
9080;SDS011;13509;50.760;6.080;2023-02-15T09:44:25;17.00;;;9.87;;
9080;SDS011;13509;50.760;6.080;2023-02-15T09:47:01;17.33;;;9.43;;
9080;SDS011;13509;50.760;6.080;2023-02-15T09:49:32;12.57;;;8.27;;
9080;SDS011;13509;50.760;6.080;2023-02-15T09:52:17;13.67;;;9.40;;
9080;SDS011;13509;50.760;6.080;2023-02-15T09:55:01;18.43;;;9.67;;
9080;SDS011;13509;50.760;6.080;2023-02-15T09:57:32;17.17;;;9.40;;
9080;SDS011;13509;50.760;6.080;2023-02-15T10:00:05;15.53;;;9.83;;
9080;SDS011;13509;50.760;6.080;2023-02-15T10:02:38;18.10;;;9.43;;
9080;SDS011;13509;50.760;6.080;2023-02-15T10:05:12;18.13;;;10.57;;
9080;SDS011;13509;50.760;6.080;2023-02-15T10:07:56;18.70;;;10.60;;
9080;SDS011;13509;50.760;6.080;2023-02-15T10:10:32;22.50;;;10.90;;
9080;SDS011;13509;50.760;6.080;2023-02-15T10:13:11;18.80;;;10.33;;
9080;SDS011;13509;50.760;6.080;2023-02-15T10:15:48;22.00;;;10.27;;
9080;SDS011;13509;50.760;6.080;2023-02-15T10:18:30;17.03;;;9.83;;
9080;SDS011;13509;50.760;6.080;2023-02-15T10:21:02;16.30;;;9.40;;
9080;SDS011;13509;50.760;6.080;2023-02-15T10:23:46;19.53;;;9.17;;
9080;SDS011;13509;50.760;6.080;2023-02-15T10:26:18;13.93;;;8.53;;
9080;SDS011;13509;50.760;6.080;2023-02-15T10:28:49;18.73;;;9.47;;
9080;SDS011;13509;50.760;6.080;2023-02-15T10:31:23;16.07;;;8.87;;
9080;SDS011;13509;50.760;6.080;2023-02-15T10:33:55;15.20;;;8.33;;
9080;SDS011;13509;50.760;6.080;2023-02-15T10:36:27;11.47;;;7.60;;
9080;SDS011;13509;50.760;6.080;2023-02-15T10:39:02;18.00;;;8.67;;
9080;SDS011;13509;50.760;6.080;2023-02-15T10:41:35;15.27;;;8.30;;
9080;SDS011;13509;50.760;6.080;2023-02-15T10:44:11;14.40;;;7.70;;
9080;SDS011;13509;50.760;6.080;2023-02-15T10:46:48;12.27;;;7.20;;
9080;SDS011;13509;50.760;6.080;2023-02-15T10:49:24;11.37;;;6.70;;
9080;SDS011;13509;50.760;6.080;2023-02-15T10:51:57;14.80;;;6.77;;
9080;SDS011;13509;50.760;6.080;2023-02-15T10:54:30;13.93;;;7.00;;
9080;SDS011;13509;50.760;6.080;2023-02-15T10:57:02;9.43;;;5.77;;
9080;SDS011;13509;50.760;6.080;2023-02-15T10:59:36;10.67;;;6.17;;
9080;SDS011;13509;50.760;6.080;2023-02-15T11:02:10;10.00;;;5.70;;
9080;SDS011;13509;50.760;6.080;2023-02-15T11:04:44;9.13;;;5.93;;
9080;SDS011;13509;50.760;6.080;2023-02-15T11:07:15;8.93;;;5.93;;
9080;SDS011;13509;50.760;6.080;2023-02-15T11:09:44;9.53;;;5.73;;
9080;SDS011;13509;50.760;6.080;2023-02-15T11:12:16;12.23;;;6.03;;
9080;SDS011;13509;50.760;6.080;2023-02-15T11:14:46;8.10;;;5.53;;
9080;SDS011;13509;50.760;6.080;2023-02-15T11:17:19;8.43;;;5.93;;
9080;SDS011;13509;50.760;6.080;2023-02-15T11:19:51;10.13;;;6.33;;
9080;SDS011;13509;50.760;6.080;2023-02-15T11:22:22;13.17;;;6.27;;
9080;SDS011;13509;50.760;6.080;2023-02-15T11:24:50;10.20;;;6.73;;
9080;SDS011;13509;50.760;6.080;2023-02-15T11:27:20;11.10;;;6.53;;
9080;SDS011;13509;50.760;6.080;2023-02-15T11:29:53;10.57;;;6.23;;
9080;SDS011;13509;50.760;6.080;2023-02-15T11:32:25;9.03;;;6.07;;
9080;SDS011;13509;50.760;6.080;2023-02-15T11:34:55;11.53;;;6.10;;
9080;SDS011;13509;50.760;6.080;2023-02-15T11:37:24;9.90;;;6.03;;
9080;SDS011;13509;50.760;6.080;2023-02-15T11:39:55;10.50;;;6.47;;
9080;SDS011;13509;50.760;6.080;2023-02-15T11:42:23;9.80;;;5.87;;
9080;SDS011;13509;50.760;6.080;2023-02-15T11:44:56;9.70;;;6.30;;
9080;SDS011;13509;50.760;6.080;2023-02-15T11:47:28;11.23;;;6.47;;
9080;SDS011;13509;50.760;6.080;2023-02-15T11:49:56;11.93;;;6.67;;
9080;SDS011;13509;50.760;6.080;2023-02-15T11:52:24;12.07;;;7.23;;
9080;SDS011;13509;50.760;6.080;2023-02-15T11:54:52;12.07;;;6.73;;
9080;SDS011;13509;50.760;6.080;2023-02-15T11:57:22;13.23;;;7.03;;
9080;SDS011;13509;50.760;6.080;2023-02-15T11:59:53;13.13;;;7.37;;
9080;SDS011;13509;50.760;6.080;2023-02-15T12:02:23;12.43;;;6.90;;
9080;SDS011;13509;50.760;6.080;2023-02-15T12:04:55;11.70;;;7.77;;
9080;SDS011;13509;50.760;6.080;2023-02-15T12:07:25;12.50;;;8.03;;
9080;SDS011;13509;50.760;6.080;2023-02-15T12:09:56;15.03;;;8.93;;
9080;SDS011;13509;50.760;6.080;2023-02-15T12:12:28;16.50;;;8.90;;
9080;SDS011;13509;50.760;6.080;2023-02-15T12:14:56;15.90;;;9.27;;
9080;SDS011;13509;50.760;6.080;2023-02-15T12:17:26;15.33;;;9.53;;
9080;SDS011;13509;50.760;6.080;2023-02-15T12:19:56;15.90;;;9.17;;
9080;SDS011;13509;50.760;6.080;2023-02-15T12:22:26;11.90;;;8.10;;
9080;SDS011;13509;50.760;6.080;2023-02-15T12:24:55;15.33;;;8.60;;
9080;SDS011;13509;50.760;6.080;2023-02-15T12:27:24;12.80;;;8.37;;
9080;SDS011;13509;50.760;6.080;2023-02-15T12:29:53;13.03;;;8.23;;
9080;SDS011;13509;50.760;6.080;2023-02-15T12:32:24;11.70;;;7.27;;
9080;SDS011;13509;50.760;6.080;2023-02-15T12:34:54;10.20;;;6.97;;
9080;SDS011;13509;50.760;6.080;2023-02-15T12:37:28;14.63;;;7.53;;
9080;SDS011;13509;50.760;6.080;2023-02-15T12:39:58;11.00;;;7.03;;
9080;SDS011;13509;50.760;6.080;2023-02-15T12:42:28;12.40;;;7.67;;
9080;SDS011;13509;50.760;6.080;2023-02-15T12:44:57;12.33;;;7.70;;
9080;SDS011;13509;50.760;6.080;2023-02-15T12:47:26;12.03;;;7.50;;
9080;SDS011;13509;50.760;6.080;2023-02-15T12:50:09;12.87;;;7.73;;
9080;SDS011;13509;50.760;6.080;2023-02-15T12:52:45;11.93;;;7.73;;
9080;SDS011;13509;50.760;6.080;2023-02-15T12:55:19;13.97;;;8.90;;
9080;SDS011;13509;50.760;6.080;2023-02-15T12:57:47;12.07;;;8.47;;
9080;SDS011;13509;50.760;6.080;2023-02-15T13:00:26;13.57;;;8.20;;
9080;SDS011;13509;50.760;6.080;2023-02-15T13:02:58;11.47;;;7.83;;
9080;SDS011;13509;50.760;6.080;2023-02-15T13:05:29;12.83;;;8.23;;
9080;SDS011;13509;50.760;6.080;2023-02-15T13:08:00;13.27;;;8.07;;
9080;SDS011;13509;50.760;6.080;2023-02-15T13:10:29;14.10;;;8.33;;
9080;SDS011;13509;50.760;6.080;2023-02-15T13:12:59;12.33;;;7.33;;
9080;SDS011;13509;50.760;6.080;2023-02-15T13:15:31;13.87;;;8.07;;
9080;SDS011;13509;50.760;6.080;2023-02-15T13:18:00;12.47;;;7.93;;
9080;SDS011;13509;50.760;6.080;2023-02-15T13:20:29;11.20;;;7.17;;
9080;SDS011;13509;50.760;6.080;2023-02-15T13:23:00;10.80;;;7.80;;
9080;SDS011;13509;50.760;6.080;2023-02-15T13:25:32;12.73;;;8.20;;
9080;SDS011;13509;50.760;6.080;2023-02-15T13:28:05;15.20;;;7.57;;
9080;SDS011;13509;50.760;6.080;2023-02-15T13:30:35;15.10;;;8.37;;
9080;SDS011;13509;50.760;6.080;2023-02-15T13:33:06;16.17;;;8.77;;
9080;SDS011;13509;50.760;6.080;2023-02-15T13:35:36;13.30;;;8.00;;
9080;SDS011;13509;50.760;6.080;2023-02-15T13:38:09;13.27;;;8.77;;
9080;SDS011;13509;50.760;6.080;2023-02-15T13:40:45;14.90;;;9.63;;
9080;SDS011;13509;50.760;6.080;2023-02-15T13:43:24;14.73;;;9.10;;
9080;SDS011;13509;50.760;6.080;2023-02-15T13:45:56;15.17;;;8.10;;
9080;SDS011;13509;50.760;6.080;2023-02-15T13:48:30;15.90;;;9.10;;
9080;SDS011;13509;50.760;6.080;2023-02-15T13:51:17;12.93;;;8.33;;
9080;SDS011;13509;50.760;6.080;2023-02-15T13:54:00;16.80;;;9.53;;
9080;SDS011;13509;50.760;6.080;2023-02-15T13:56:33;17.87;;;10.40;;
9080;SDS011;13509;50.760;6.080;2023-02-15T13:59:11;17.47;;;11.23;;
9080;SDS011;13509;50.760;6.080;2023-02-15T14:01:44;24.10;;;11.63;;
9080;SDS011;13509;50.760;6.080;2023-02-15T14:04:17;20.03;;;10.63;;
9080;SDS011;13509;50.760;6.080;2023-02-15T14:06:51;17.90;;;10.77;;
9080;SDS011;13509;50.760;6.080;2023-02-15T14:09:29;17.47;;;10.53;;
9080;SDS011;13509;50.760;6.080;2023-02-15T14:12:03;19.27;;;10.57;;
9080;SDS011;13509;50.760;6.080;2023-02-15T14:14:49;14.77;;;9.83;;
9080;SDS011;13509;50.760;6.080;2023-02-15T14:17:21;19.43;;;11.00;;
9080;SDS011;13509;50.760;6.080;2023-02-15T14:19:52;16.43;;;9.97;;
9080;SDS011;13509;50.760;6.080;2023-02-15T14:22:25;16.53;;;9.73;;
9080;SDS011;13509;50.760;6.080;2023-02-15T14:25:12;18.60;;;11.70;;
9080;SDS011;13509;50.760;6.080;2023-02-15T14:27:45;26.03;;;13.63;;
9080;SDS011;13509;50.760;6.080;2023-02-15T14:30:15;21.93;;;13.20;;
9080;SDS011;13509;50.760;6.080;2023-02-15T14:32:45;23.60;;;13.17;;
9080;SDS011;13509;50.760;6.080;2023-02-15T14:35:15;22.80;;;13.57;;
9080;SDS011;13509;50.760;6.080;2023-02-15T14:37:45;22.57;;;13.37;;
9080;SDS011;13509;50.760;6.080;2023-02-15T14:40:18;25.57;;;14.03;;
9080;SDS011;13509;50.760;6.080;2023-02-15T14:43:10;25.13;;;13.83;;
9080;SDS011;13509;50.760;6.080;2023-02-15T14:45:40;22.33;;;13.33;;
9080;SDS011;13509;50.760;6.080;2023-02-15T14:48:10;21.43;;;12.03;;
9080;SDS011;13509;50.760;6.080;2023-02-15T14:50:41;25.20;;;12.93;;
9080;SDS011;13509;50.760;6.080;2023-02-15T14:53:20;23.40;;;13.03;;
9080;SDS011;13509;50.760;6.080;2023-02-15T14:58:35;18.67;;;11.33;;
9080;SDS011;13509;50.760;6.080;2023-02-15T15:01:04;23.37;;;12.17;;
9080;SDS011;13509;50.760;6.080;2023-02-15T15:03:35;21.53;;;12.30;;
9080;SDS011;13509;50.760;6.080;2023-02-15T15:06:04;23.33;;;12.57;;
9080;SDS011;13509;50.760;6.080;2023-02-15T15:08:34;25.20;;;13.10;;
9080;SDS011;13509;50.760;6.080;2023-02-15T15:14:10;21.73;;;11.83;;
9080;SDS011;13509;50.760;6.080;2023-02-15T15:16:46;24.23;;;12.67;;
9080;SDS011;13509;50.760;6.080;2023-02-15T15:22:17;22.77;;;13.37;;
9080;SDS011;13509;50.760;6.080;2023-02-15T15:24:47;26.00;;;12.63;;
9080;SDS011;13509;50.760;6.080;2023-02-15T15:30:07;27.47;;;13.07;;
9080;SDS011;13509;50.760;6.080;2023-02-15T15:32:56;23.37;;;12.90;;
9080;SDS011;13509;50.760;6.080;2023-02-15T15:35:27;25.77;;;13.33;;
9080;SDS011;13509;50.760;6.080;2023-02-15T15:40:47;21.97;;;12.73;;